Stettler, Canada
Current Conditions -  °F | °C
As of 12:00 PM on Monday 22 Dec 2014 (Local Time) from CYQF Reporting Station
Broken Clouds Broken Clouds  
Wind Chill: 23°   Ceiling: 8600
Heat Index: 30°   Visibility: 15mi
Dew Point: 21°   Wind: 7mph
Humidity: 69%   Direction: 270°W
Pressure: 29.89"   Gusts: NA
Location:  52.33°N, 112.68°W
Report Text: CYQF 221900Z 27006KT 15SM BKN086 M01/M06 A2989 RMK AC6 SLP164
Loading
Personal Weather Stations






























Interactive Weather Map New forecast layout! Learn more

10-Day Weather Forecast

Advertisements
Track Severe Weather on mobile